Time;durP1;ratioP1;P1;durP2;ratioP2;P2;SDS_P1;SDS_P2;PMS_P1;PMS_P2;Temp;Humidity;BMP_temperature;BMP_pressure;BME280_temperature;BME280_humidity;BME280_pressure;Samples;Min_cycle;Max_cycle;Signal;HPM_P1;HPM_P2
2024/04/07 00:02:02;;;;;;;5.63;2.50;;;11.80;99.90;;;;;;5072439;28;20035;-74
2024/04/07 00:04:27;;;;;;;4.85;2.63;;;11.80;99.90;;;;;;5073291;28;20025;-74
2024/04/07 00:06:53;;;;;;;2.53;2.10;;;11.70;99.90;;;;;;5073885;28;20027;-74
2024/04/07 00:09:19;;;;;;;2.88;2.20;;;11.70;99.90;;;;;;5073706;28;20016;-74
2024/04/07 00:11:44;;;;;;;3.13;2.05;;;11.60;99.90;;;;;;5073486;28;20501;-74
2024/04/07 00:14:10;;;;;;;3.28;2.80;;;11.60;99.90;;;;;;5073113;28;20025;-74
2024/04/07 00:16:35;;;;;;;2.88;2.42;;;11.60;99.90;;;;;;5073714;28;20395;-74
2024/04/07 00:19:01;;;;;;;2.22;2.03;;;11.50;99.90;;;;;;5073669;28;20021;-74
2024/04/07 00:21:27;;;;;;;1.98;1.70;;;11.50;99.90;;;;;;5073324;28;20036;-74
2024/04/07 00:23:54;;;;;;;3.20;2.30;;;11.40;99.90;;;;;;5072696;28;20017;-74
2024/04/07 00:26:20;;;;;;;3.53;2.10;;;11.40;99.90;;;;;;5073518;28;20155;-75
2024/04/07 00:28:45;;;;;;;2.47;2.22;;;11.40;99.90;;;;;;5073478;28;20082;-74
2024/04/07 00:31:11;;;;;;;2.75;2.25;;;11.30;99.90;;;;;;5073190;28;20028;-74
2024/04/07 00:33:38;;;;;;;3.90;1.95;;;11.30;99.90;;;;;;5072703;28;20029;-74
2024/04/07 00:36:04;;;;;;;2.35;1.65;;;11.20;99.90;;;;;;5073400;28;20429;-74
2024/04/07 00:38:30;;;;;;;3.17;2.33;;;11.20;99.90;;;;;;5073227;28;20025;-74
2024/04/07 00:40:57;;;;;;;2.92;2.33;;;11.10;99.90;;;;;;5072967;28;20708;-74
2024/04/07 00:43:27;;;;;;;5.10;2.78;;;11.10;99.90;;;;;;5072526;28;20025;-74
2024/04/07 00:45:57;;;;;;;3.45;2.33;;;11.10;99.90;;;;;;5073106;28;20387;-74
2024/04/07 00:48:26;;;;;;;4.32;2.70;;;11.00;99.90;;;;;;5073050;28;20021;-74
2024/04/07 00:50:53;;;;;;;6.45;2.70;;;11.00;99.90;;;;;;5072779;28;20016;-74
2024/04/07 00:53:19;;;;;;;5.55;2.63;;;10.90;99.90;;;;;;5072302;28;20036;-74
2024/04/07 00:55:46;;;;;;;4.05;2.20;;;10.90;99.90;;;;;;5072823;28;20111;-74
2024/04/07 00:58:15;;;;;;;4.78;3.33;;;10.90;99.90;;;;;;5072916;28;20032;-74
2024/04/07 01:00:44;;;;;;;4.97;2.90;;;10.80;99.90;;;;;;5071093;28;20531;-74
2024/04/07 01:03:11;;;;;;;3.78;2.65;;;10.80;99.90;;;;;;5070865;28;20025;-74
2024/04/07 01:05:43;;;;;;;3.10;2.90;;;10.80;99.90;;;;;;5072570;28;20636;-74
2024/04/07 01:08:10;;;;;;;3.65;2.83;;;10.70;99.90;;;;;;5072639;28;20028;-74
2024/04/07 01:10:36;;;;;;;3.45;2.97;;;10.80;99.90;;;;;;5072461;28;20020;-74
2024/04/07 01:13:02;;;;;;;3.45;3.15;;;10.80;99.90;;;;;;5071931;28;20020;-74
2024/04/07 01:15:28;;;;;;;4.05;2.40;;;10.80;99.90;;;;;;5072448;28;20021;-74
2024/04/07 01:17:54;;;;;;;4.63;3.03;;;10.80;99.90;;;;;;5072781;28;20029;-73
2024/04/07 01:20:20;;;;;;;4.45;3.03;;;10.80;99.90;;;;;;5072822;28;20033;-74
2024/04/07 01:22:46;;;;;;;4.32;2.97;;;10.80;99.90;;;;;;5071008;28;20039;-74
2024/04/07 01:25:16;;;;;;;3.72;3.08;;;10.80;99.90;;;;;;5072451;28;20031;-74
2024/04/07 01:27:41;;;;;;;3.40;2.85;;;10.80;99.90;;;;;;5072410;28;20089;-75
2024/04/07 01:30:07;;;;;;;8.75;2.53;;;10.80;99.90;;;;;;5072219;28;20472;-75
2024/04/07 01:32:33;;;;;;;4.05;3.00;;;10.80;99.90;;;;;;5072046;28;20028;-74
2024/04/07 01:34:59;;;;;;;4.43;3.53;;;10.80;99.90;;;;;;5070579;28;20575;-75
2024/04/07 01:37:25;;;;;;;4.13;3.13;;;10.80;99.90;;;;;;5070850;28;20060;-75
2024/04/07 01:39:50;;;;;;;6.97;2.85;;;10.70;99.90;;;;;;5072022;28;20422;-75
2024/04/07 01:42:16;;;;;;;5.82;3.00;;;10.80;99.90;;;;;;5071848;28;20025;-75
2024/04/07 01:44:42;;;;;;;3.33;2.90;;;10.80;99.90;;;;;;5070143;28;20025;-75
2024/04/07 01:47:07;;;;;;;8.50;3.08;;;10.90;99.90;;;;;;5071925;28;20446;-75
2024/04/07 01:49:33;;;;;;;8.18;3.17;;;10.90;99.90;;;;;;5071927;28;20025;-75
2024/04/07 01:51:59;;;;;;;3.75;2.85;;;10.80;99.90;;;;;;5071645;28;20031;-75
2024/04/07 01:54:24;;;;;;;2.83;2.60;;;10.90;99.90;;;;;;5069886;28;20368;-75
2024/04/07 01:56:50;;;;;;;3.97;3.20;;;10.90;99.90;;;;;;5071813;28;20043;-75
2024/04/07 01:59:16;;;;;;;4.40;3.15;;;10.80;99.90;;;;;;5070523;28;20028;-75
2024/04/07 02:01:42;;;;;;;5.25;2.53;;;10.80;99.90;;;;;;5071341;28;20020;-75
2024/04/07 02:04:07;;;;;;;2.67;2.42;;;10.80;99.90;;;;;;5071253;28;20387;-75
2024/04/07 02:06:33;;;;;;;4.72;3.72;;;10.70;99.90;;;;;;5071713;28;20056;-75
2024/04/07 02:08:59;;;;;;;2.55;2.22;;;10.70;99.90;;;;;;5070331;28;20475;-75
2024/04/07 02:11:24;;;;;;;2.97;2.67;;;10.60;99.90;;;;;;5070644;28;20032;-75
2024/04/07 02:13:51;;;;;;;3.83;2.58;;;10.50;99.90;;;;;;5070916;28;20115;-74
2024/04/07 02:16:17;;;;;;;3.22;2.83;;;10.40;99.90;;;;;;5071440;28;20051;-75
2024/04/07 02:18:42;;;;;;;6.55;2.85;;;10.40;99.90;;;;;;5067894;28;20487;-75
2024/04/07 02:21:09;;;;;;;3.10;2.78;;;10.30;99.90;;;;;;5071165;28;20028;-74
2024/04/07 02:23:34;;;;;;;3.22;2.70;;;10.30;99.90;;;;;;5070739;28;20028;-74
2024/04/07 02:26:00;;;;;;;7.85;3.10;;;10.30;99.90;;;;;;5071468;28;20020;-75
2024/04/07 02:28:25;;;;;;;3.15;2.65;;;10.30;99.90;;;;;;5071454;28;20610;-75
2024/04/07 02:30:51;;;;;;;4.10;3.15;;;10.20;99.90;;;;;;5069997;28;20047;-75
2024/04/07 02:33:17;;;;;;;2.85;2.47;;;10.10;99.90;;;;;;5070828;28;20063;-74
2024/04/07 02:35:42;;;;;;;7.35;2.80;;;10.10;99.90;;;;;;5071381;28;20025;-75
2024/04/07 02:38:10;;;;;;;2.58;2.38;;;10.10;99.90;;;;;;5071119;28;20062;-75
2024/04/07 02:40:35;;;;;;;8.40;3.10;;;10.10;99.90;;;;;;5071231;28;20456;-75
2024/04/07 02:43:01;;;;;;;3.55;2.30;;;10.10;99.90;;;;;;5069369;28;20025;-74
2024/04/07 02:48:11;;;;;;;2.20;1.98;;;10.00;99.90;;;;;;5071116;28;20453;-74
2024/04/07 02:50:36;;;;;;;2.53;2.33;;;9.90;99.90;;;;;;5071231;28;20052;-74
2024/04/07 02:53:03;;;;;;;8.70;2.80;;;9.90;99.90;;;;;;5069211;28;20135;-74
2024/04/07 02:55:29;;;;;;;3.25;2.05;;;9.90;99.90;;;;;;5071222;28;20056;-74
2024/04/07 02:57:55;;;;;;;3.65;2.60;;;9.80;99.90;;;;;;5071159;28;20075;-74
2024/04/07 03:00:21;;;;;;;4.28;2.60;;;9.80;99.90;;;;;;5071090;28;20029;-74
2024/04/07 03:02:47;;;;;;;6.53;2.85;;;9.80;99.90;;;;;;5070682;28;20415;-74
2024/04/07 03:05:13;;;;;;;3.97;3.05;;;9.80;99.90;;;;;;5069645;28;20029;-74
2024/04/07 03:07:39;;;;;;;8.40;2.80;;;9.90;99.90;;;;;;5071019;28;20431;-73
2024/04/07 03:10:08;;;;;;;3.70;2.78;;;10.00;99.90;;;;;;5069578;28;20059;-73
2024/04/07 03:12:34;;;;;;;2.95;2.38;;;10.00;99.90;;;;;;5069495;28;20028;-73
2024/04/07 03:15:03;;;;;;;4.75;2.58;;;10.00;99.90;;;;;;5070513;28;20029;-74
2024/04/07 03:17:29;;;;;;;6.22;3.13;;;9.90;99.90;;;;;;5071068;28;20029;-74
2024/04/07 03:19:56;;;;;;;3.28;2.75;;;9.80;99.90;;;;;;5070889;28;20036;-73
2024/04/07 03:22:21;;;;;;;5.50;3.10;;;9.80;99.90;;;;;;5070694;28;20025;-73
2024/04/07 03:24:47;;;;;;;4.15;3.40;;;9.80;99.90;;;;;;5074067;28;20059;-73
2024/04/07 03:27:13;;;;;;;5.00;2.90;;;9.80;99.90;;;;;;5074476;28;20391;-74
2024/04/07 03:29:38;;;;;;;5.30;3.40;;;9.80;99.90;;;;;;5074663;28;20150;-73
2024/04/07 03:32:04;;;;;;;4.53;2.72;;;9.80;99.90;;;;;;5074596;28;20025;-74
2024/04/07 03:34:30;;;;;;;3.08;2.78;;;9.70;99.90;;;;;;5074216;28;20440;-73
2024/04/07 03:36:56;;;;;;;3.97;2.53;;;9.70;99.90;;;;;;5074518;28;20444;-73
2024/04/07 03:39:21;;;;;;;3.08;2.65;;;9.60;99.90;;;;;;5074766;28;20039;-74
2024/04/07 03:41:47;;;;;;;3.38;2.67;;;9.60;99.90;;;;;;5074061;28;20056;-74
2024/04/07 03:44:13;;;;;;;5.32;2.90;;;9.60;99.90;;;;;;5073790;28;20024;-73
2024/04/07 03:46:38;;;;;;;3.25;2.95;;;9.50;99.90;;;;;;5074270;28;20475;-74
2024/04/07 03:49:05;;;;;;;5.63;2.58;;;9.50;99.90;;;;;;5072937;28;20486;-73
2024/04/07 03:51:31;;;;;;;3.70;2.38;;;9.50;99.90;;;;;;5073996;28;20031;-74
2024/04/07 03:53:57;;;;;;;3.28;2.53;;;9.50;99.90;;;;;;5073307;28;20036;-74
2024/04/07 03:56:22;;;;;;;2.95;2.60;;;9.40;99.90;;;;;;5073915;28;20021;-73
2024/04/07 03:58:48;;;;;;;5.15;2.90;;;9.40;99.90;;;;;;5074072;28;20059;-73
2024/04/07 04:01:15;;;;;;;7.50;2.78;;;9.40;99.90;;;;;;5072560;28;20028;-73
2024/04/07 04:03:41;;;;;;;3.13;2.45;;;9.40;99.90;;;;;;5073293;28;20021;-74
2024/04/07 04:06:07;;;;;;;2.78;2.38;;;9.30;99.90;;;;;;5072489;28;20066;-74
2024/04/07 04:08:33;;;;;;;3.67;2.95;;;9.20;99.90;;;;;;5073764;28;20024;-74
2024/04/07 04:11:02;;;;;;;2.85;2.60;;;9.20;99.90;;;;;;5072346;28;20116;-73
2024/04/07 04:13:28;;;;;;;10.18;3.40;;;9.20;99.90;;;;;;5071823;28;20052;-73
2024/04/07 04:15:54;;;;;;;6.20;2.80;;;9.10;99.90;;;;;;5072426;28;20055;-74
2024/04/07 04:18:20;;;;;;;5.95;3.35;;;9.10;99.90;;;;;;5073576;28;20039;-73
2024/04/07 04:20:46;;;;;;;2.45;2.25;;;9.10;99.90;;;;;;5073510;28;20028;-74
2024/04/07 04:23:11;;;;;;;9.98;2.50;;;9.10;99.90;;;;;;5072893;28;20067;-74
2024/04/07 04:25:38;;;;;;;3.13;2.88;;;9.10;99.90;;;;;;5073397;28;20021;-74
2024/04/07 04:28:05;;;;;;;3.38;2.35;;;9.10;99.90;;;;;;5072368;28;20173;-73
2024/04/07 04:30:30;;;;;;;4.38;2.42;;;9.10;99.90;;;;;;5072033;28;20028;-72
2024/04/07 04:32:58;;;;;;;2.97;2.45;;;9.00;99.90;;;;;;5071505;28;20031;-73
2024/04/07 04:35:24;;;;;;;3.15;2.53;;;9.10;99.90;;;;;;5071036;28;20513;-73
2024/04/07 04:37:50;;;;;;;2.50;2.20;;;9.00;99.90;;;;;;5072152;28;20414;-74
2024/04/07 04:40:15;;;;;;;2.15;1.83;;;9.10;99.90;;;;;;5073046;28;20033;-73
2024/04/07 04:42:41;;;;;;;4.18;1.98;;;9.10;99.90;;;;;;5073077;28;20401;-73
2024/04/07 04:45:07;;;;;;;3.05;1.95;;;9.10;99.90;;;;;;5072573;28;20019;-73
2024/04/07 04:47:34;;;;;;;5.20;2.45;;;9.10;99.90;;;;;;5073016;28;20095;-73
2024/04/07 04:50:00;;;;;;;3.50;2.55;;;9.20;99.90;;;;;;5072861;28;20059;-74
2024/04/07 04:52:28;;;;;;;7.68;4.07;;;9.20;99.90;;;;;;5071365;28;20036;-74
2024/04/07 04:54:54;;;;;;;2.63;2.42;;;9.30;99.90;;;;;;5072313;28;20031;-74
2024/04/07 04:57:20;;;;;;;5.78;3.10;;;9.40;99.90;;;;;;5071622;28;20024;-74
2024/04/07 04:59:46;;;;;;;5.15;3.25;;;9.40;99.90;;;;;;5072834;28;20106;-74
2024/04/07 05:02:11;;;;;;;5.10;3.30;;;9.40;99.90;;;;;;5072595;28;20028;-75
2024/04/07 05:04:37;;;;;;;4.38;3.15;;;9.40;99.90;;;;;;5072063;28;20028;-74
2024/04/07 05:07:04;;;;;;;3.75;3.25;;;9.40;99.90;;;;;;5071307;28;20043;-74
2024/04/07 05:09:30;;;;;;;3.55;2.95;;;9.50;99.90;;;;;;5071362;28;20082;-74
2024/04/07 05:11:56;;;;;;;5.25;3.92;;;9.60;99.90;;;;;;5072425;28;20038;-74
2024/04/07 05:14:22;;;;;;;6.28;3.17;;;9.70;99.90;;;;;;5072023;28;20032;-74
2024/04/07 05:16:49;;;;;;;5.45;3.58;;;9.70;99.90;;;;;;5072601;28;20035;-74
2024/04/07 05:19:14;;;;;;;3.85;2.90;;;9.80;99.90;;;;;;5071229;28;20052;-74
2024/04/07 05:21:41;;;;;;;4.18;2.97;;;9.80;99.90;;;;;;5072167;28;20064;-74
2024/04/07 05:24:09;;;;;;;8.50;2.70;;;9.90;99.90;;;;;;5071785;28;20040;-74
2024/04/07 05:26:34;;;;;;;4.35;3.10;;;10.00;99.90;;;;;;5072404;28;20031;-74
2024/04/07 05:29:00;;;;;;;4.20;2.97;;;10.00;99.90;;;;;;5072380;28;20021;-74
2024/04/07 05:31:25;;;;;;;6.13;2.88;;;10.00;99.90;;;;;;5072158;28;20036;-74
2024/04/07 05:33:51;;;;;;;4.32;3.80;;;10.10;99.90;;;;;;5071448;28;20031;-74
2024/04/07 05:36:17;;;;;;;5.00;3.70;;;10.20;99.90;;;;;;5070726;28;20064;-74
2024/04/07 05:38:45;;;;;;;6.07;3.92;;;10.30;99.90;;;;;;5072050;28;20048;-74
2024/04/07 05:41:11;;;;;;;3.88;3.45;;;10.40;99.90;;;;;;5071904;28;20547;-74
2024/04/07 05:43:37;;;;;;;6.03;3.63;;;10.50;99.90;;;;;;5070130;28;20123;-73
2024/04/07 05:46:07;;;;;;;3.70;3.30;;;10.70;99.90;;;;;;5073577;28;20099;-72
2024/04/07 05:48:33;;;;;;;5.53;4.28;;;11.30;99.90;;;;;;5068717;28;20021;-72
2024/04/07 05:51:00;;;;;;;5.90;3.60;;;11.30;99.90;;;;;;5067083;28;20036;-72
2024/04/07 05:53:25;;;;;;;7.38;3.53;;;11.30;99.90;;;;;;5068328;28;20031;-73
2024/04/07 05:55:51;;;;;;;7.45;3.80;;;11.40;99.90;;;;;;5071624;28;20017;-72
2024/04/07 05:58:17;;;;;;;4.32;3.50;;;11.50;99.90;;;;;;5072128;28;20012;-73
2024/04/07 06:00:44;;;;;;;5.85;4.43;;;11.60;99.90;;;;;;5072711;28;20021;-72
2024/04/07 06:03:09;;;;;;;5.30;3.97;;;11.70;99.90;;;;;;5069671;28;20105;-73
2024/04/07 06:05:37;;;;;;;5.57;3.80;;;11.80;99.90;;;;;;5070317;28;20519;-74
2024/04/07 06:08:03;;;;;;;6.35;4.35;;;11.90;99.90;;;;;;5070466;28;20020;-73
2024/04/07 06:10:29;;;;;;;5.68;3.33;;;12.10;99.90;;;;;;5071479;28;20024;-73
2024/04/07 06:12:55;;;;;;;4.22;3.28;;;12.10;99.90;;;;;;5071013;28;20028;-73
2024/04/07 06:15:22;;;;;;;6.32;3.38;;;12.20;99.90;;;;;;5070385;28;20482;-73
2024/04/07 06:17:48;;;;;;;6.80;3.65;;;12.30;99.90;;;;;;5071510;28;20052;-73
2024/04/07 06:20:14;;;;;;;5.57;3.60;;;12.40;99.90;;;;;;5071278;28;20117;-73
2024/04/07 06:22:40;;;;;;;4.43;2.63;;;12.50;99.90;;;;;;5071360;28;20131;-73
2024/04/07 06:25:06;;;;;;;5.43;3.58;;;12.60;99.90;;;;;;5069813;28;20024;-73
2024/04/07 06:27:32;;;;;;;4.15;2.78;;;12.60;99.90;;;;;;5065863;28;20023;-73
2024/04/07 06:30:02;;;;;;;4.75;3.70;;;12.70;99.90;;;;;;5069922;28;20021;-73
2024/04/07 06:32:28;;;;;;;4.10;3.50;;;12.80;99.90;;;;;;5066143;28;20410;-73
2024/04/07 06:34:55;;;;;;;4.15;3.30;;;12.90;99.90;;;;;;5066955;28;20056;-73
2024/04/07 06:37:21;;;;;;;6.93;3.90;;;13.10;99.90;;;;;;5067400;28;20021;-73
2024/04/07 06:39:47;;;;;;;4.78;3.20;;;13.20;99.90;;;;;;5065525;28;20078;-73
2024/04/07 06:42:20;;;;;;;5.78;3.22;;;13.30;99.90;;;;;;5067387;28;20479;-73
2024/04/07 06:44:45;;;;;;;5.95;3.80;;;13.40;99.90;;;;;;5064980;28;20040;-73
2024/04/07 06:47:11;;;;;;;3.45;3.15;;;13.70;99.90;;;;;;5067270;28;20020;-73
2024/04/07 06:49:37;;;;;;;5.13;3.58;;;13.90;99.90;;;;;;5068807;28;20017;-75
2024/04/07 06:52:03;;;;;;;5.60;3.53;;;14.10;99.90;;;;;;5060669;28;20052;-74
2024/04/07 06:54:28;;;;;;;4.50;3.75;;;14.30;99.90;;;;;;5069325;28;20031;-75
2024/04/07 06:56:54;;;;;;;5.70;2.90;;;14.40;99.90;;;;;;5071323;28;20032;-75
2024/04/07 06:59:20;;;;;;;4.68;3.10;;;14.60;99.90;;;;;;5074371;28;20425;-75
2024/04/07 07:01:45;;;;;;;5.85;2.83;;;14.80;99.90;;;;;;5074648;28;20174;-75
2024/04/07 07:04:11;;;;;;;7.03;3.33;;;15.00;99.90;;;;;;5074625;28;20088;-75
2024/04/07 07:06:37;;;;;;;4.28;2.50;;;15.30;99.90;;;;;;5072160;28;20024;-75
2024/04/07 07:09:02;;;;;;;3.22;2.50;;;15.40;99.90;;;;;;5073880;28;20082;-74
2024/04/07 07:11:28;;;;;;;9.00;2.72;;;15.70;99.90;;;;;;5075101;28;20029;-75
2024/04/07 07:13:54;;;;;;;3.40;2.65;;;15.90;99.90;;;;;;5073021;28;20024;-76
2024/04/07 07:16:20;;;;;;;5.75;2.38;;;16.20;99.90;;;;;;5074899;28;20035;-76
2024/04/07 07:18:46;;;;;;;2.90;2.35;;;16.30;99.90;;;;;;5073627;28;20063;-76
2024/04/07 07:21:11;;;;;;;4.00;1.88;;;16.50;98.30;;;;;;5073844;28;20025;-76
2024/04/07 07:23:38;;;;;;;4.68;2.28;;;16.60;95.90;;;;;;5067101;28;20009;-75
2024/04/07 07:26:03;;;;;;;2.00;1.48;;;16.90;96.30;;;;;;5071973;28;20036;-76
2024/04/07 07:28:30;;;;;;;3.03;2.35;;;17.20;98.60;;;;;;5065069;28;20017;-76
2024/04/07 07:30:55;;;;;;;6.47;1.48;;;17.40;94.10;;;;;;5074826;28;20021;-76
2024/04/07 07:33:21;;;;;;;4.28;1.90;;;17.60;90.90;;;;;;5074400;28;20040;-76
2024/04/07 07:35:50;;;;;;;3.67;1.92;;;17.60;91.90;;;;;;5073531;28;20020;-77
2024/04/07 07:38:16;;;;;;;3.67;2.05;;;17.80;90.80;;;;;;5074932;28;20462;-77
2024/04/07 07:40:41;;;;;;;1.60;1.50;;;17.90;91.30;;;;;;5074642;28;20131;-76
2024/04/07 07:43:07;;;;;;;2.05;1.90;;;18.00;92.00;;;;;;5074126;28;20486;-76
2024/04/07 07:45:33;;;;;;;2.10;2.00;;;18.20;92.20;;;;;;5074662;28;20417;-77
2024/04/07 07:47:58;;;;;;;2.30;2.10;;;18.40;92.00;;;;;;5073426;28;20491;-77
2024/04/07 07:50:24;;;;;;;2.42;1.95;;;18.50;91.30;;;;;;5074769;28;20021;-76
2024/04/07 07:52:50;;;;;;;1.90;1.55;;;18.70;90.70;;;;;;5074030;28;20032;-76
2024/04/07 07:55:16;;;;;;;2.33;1.65;;;18.80;89.50;;;;;;5079944;28;20029;-75
2024/04/07 07:57:42;;;;;;;2.90;1.90;;;18.90;90.10;;;;;;5095789;28;20030;-76
2024/04/07 08:00:11;;;;;;;3.55;1.85;;;19.10;90.70;;;;;;5096280;28;20035;-75
2024/04/07 08:02:40;;;;;;;1.60;1.50;;;19.20;91.00;;;;;;5096574;28;20045;-76
2024/04/07 08:05:06;;;;;;;3.22;1.40;;;19.40;88.20;;;;;;5086910;28;20055;-76
2024/04/07 08:07:32;;;;;;;2.22;1.35;;;19.50;87.20;;;;;;5070377;28;20032;-76
2024/04/07 08:09:59;;;;;;;1.40;1.13;;;19.70;86.70;;;;;;5067608;28;20070;-76
2024/04/07 08:12:24;;;;;;;4.13;1.65;;;19.90;88.60;;;;;;5074417;28;20372;-76
2024/04/07 08:14:50;;;;;;;1.77;1.15;;;20.10;87.60;;;;;;5071883;28;20082;-76
2024/04/07 08:17:16;;;;;;;1.40;1.25;;;20.30;86.70;;;;;;5074048;28;20033;-76
2024/04/07 08:19:42;;;;;;;3.08;2.78;;;20.40;84.60;;;;;;5073233;28;20124;-75
2024/04/07 08:22:08;;;;;;;5.32;1.73;;;20.50;86.30;;;;;;5069605;28;20522;-76
2024/04/07 08:24:33;;;;;;;1.85;1.60;;;20.70;87.30;;;;;;5073774;28;20387;-76
2024/04/07 08:26:59;;;;;;;1.45;1.33;;;20.80;84.90;;;;;;5074168;28;20013;-76
2024/04/07 08:29:24;;;;;;;4.70;2.13;;;21.10;86.10;;;;;;5074741;28;20027;-76
2024/04/07 08:31:50;;;;;;;4.43;2.42;;;21.30;84.70;;;;;;5075021;28;20394;-77
2024/04/07 08:34:16;;;;;;;2.38;1.40;;;21.40;86.10;;;;;;5073338;28;20028;-76
2024/04/07 08:36:41;;;;;;;2.60;1.67;;;21.50;84.70;;;;;;5074055;28;20032;-76
2024/04/07 08:39:07;;;;;;;2.58;1.38;;;21.50;84.80;;;;;;5073762;28;20028;-77
2024/04/07 08:41:33;;;;;;;5.65;1.70;;;21.60;83.00;;;;;;5074540;28;20394;-76
2024/04/07 08:43:58;;;;;;;5.95;2.05;;;21.70;81.90;;;;;;5073074;28;20111;-76
2024/04/07 08:46:25;;;;;;;1.95;1.50;;;21.80;83.30;;;;;;5073437;28;20021;-76
2024/04/07 08:48:53;;;;;;;2.78;1.92;;;21.90;80.00;;;;;;5072170;28;20031;-75
2024/04/07 08:51:19;;;;;;;4.50;1.80;;;21.90;80.60;;;;;;5073397;28;20017;-76
2024/04/07 08:53:45;;;;;;;2.47;1.50;;;22.10;80.30;;;;;;5072923;28;20570;-77
2024/04/07 08:56:12;;;;;;;1.45;1.13;;;22.20;74.40;;;;;;5072267;28;20047;-76
2024/04/07 08:58:42;;;;;;;3.20;1.23;;;22.30;71.60;;;;;;5073515;28;20119;-77
2024/04/07 09:01:14;;;;;;;0.80;0.80;;;22.40;70.10;;;;;;5073217;28;20503;-77
2024/04/07 09:03:41;;;;;;;4.57;1.10;;;22.50;66.90;;;;;;5064031;28;20515;-77
2024/04/07 09:06:07;;;;;;;1.05;0.88;;;22.70;65.20;;;;;;5072008;28;20457;-76
2024/04/07 09:08:33;;;;;;;1.70;0.98;;;22.80;63.90;;;;;;5071829;28;20050;-76
2024/04/07 09:10:59;;;;;;;3.97;1.13;;;22.90;62.80;;;;;;5072332;28;20028;-77
2024/04/07 09:13:24;;;;;;;3.17;1.13;;;23.00;62.30;;;;;;5071135;28;20032;-76
2024/04/07 09:15:50;;;;;;;2.05;1.30;;;23.00;60.90;;;;;;5073024;28;20024;-76
2024/04/07 09:18:22;;;;;;;1.55;1.33;;;23.10;59.50;;;;;;5072816;28;20032;-75
2024/04/07 09:20:48;;;;;;;3.30;1.30;;;23.20;61.50;;;;;;5071961;28;20029;-76
2024/04/07 09:23:13;;;;;;;3.08;1.80;;;23.20;63.20;;;;;;5070438;28;20020;-76
2024/04/07 09:25:39;;;;;;;3.25;1.67;;;23.20;64.70;;;;;;5072286;28;20024;-76
2024/04/07 09:28:05;;;;;;;2.38;1.30;;;23.30;66.00;;;;;;5072426;28;20035;-75
2024/04/07 09:30:31;;;;;;;1.30;1.20;;;23.40;65.50;;;;;;5070941;28;20021;-76
2024/04/07 09:32:57;;;;;;;3.22;1.85;;;23.50;63.50;;;;;;5065622;28;20029;-76
2024/04/07 09:35:23;;;;;;;3.75;2.22;;;23.60;63.70;;;;;;5062164;28;20039;-75
2024/04/07 09:37:49;;;;;;;4.20;1.58;;;23.60;61.20;;;;;;5066300;28;20503;-76
2024/04/07 09:40:14;;;;;;;1.85;1.48;;;23.70;61.70;;;;;;5067017;28;20146;-76
2024/04/07 09:42:40;;;;;;;6.90;1.67;;;23.70;62.80;;;;;;5067301;28;20467;-76
2024/04/07 09:45:09;;;;;;;2.90;1.10;;;23.70;62.20;;;;;;5071502;28;20048;-76
2024/04/07 09:47:36;;;;;;;1.65;1.50;;;23.80;62.30;;;;;;5071031;28;20035;-76
2024/04/07 09:50:24;;;;;;;1.10;1.10;;;23.90;60.00;;;;;;5071581;28;20509;-76
2024/04/07 09:52:51;;;;;;;1.77;1.33;;;24.00;59.40;;;;;;5070067;28;20036;-75
2024/04/07 09:55:19;;;;;;;2.20;1.10;;;24.10;59.60;;;;;;5072092;28;20024;-76
2024/04/07 09:57:45;;;;;;;1.92;1.10;;;24.10;59.20;;;;;;5072287;28;20024;-76
2024/04/07 10:00:12;;;;;;;3.58;0.88;;;24.20;58.60;;;;;;5070869;28;20583;-76
2024/04/07 10:02:42;;;;;;;2.72;1.05;;;24.30;59.00;;;;;;5072375;28;20056;-75
2024/04/07 10:05:09;;;;;;;3.35;1.48;;;24.50;59.50;;;;;;5071891;28;20063;-76
2024/04/07 10:07:36;;;;;;;2.70;1.15;;;24.60;57.80;;;;;;5072550;28;20028;-77
2024/04/07 10:10:05;;;;;;;4.38;1.35;;;24.70;56.80;;;;;;5081189;28;20498;-72
2024/04/07 10:12:31;;;;;;;1.80;0.85;;;24.70;54.80;;;;;;5093026;28;20024;-73
2024/04/07 10:15:00;;;;;;;1.00;0.90;;;24.80;54.20;;;;;;5093064;28;20019;-74
2024/04/07 10:17:30;;;;;;;1.00;0.88;;;24.80;51.70;;;;;;5083042;28;20041;-74
2024/04/07 10:19:57;;;;;;;3.28;1.10;;;24.90;51.10;;;;;;5076555;28;20040;-73
2024/04/07 10:22:24;;;;;;;1.85;1.40;;;25.10;51.60;;;;;;5071961;28;20383;-75
2024/04/07 10:24:51;;;;;;;1.35;1.25;;;25.10;47.60;;;;;;5074967;28;20025;-74
2024/04/07 10:27:25;;;;;;;0.80;0.50;;;25.20;50.70;;;;;;5072609;28;20093;-75
2024/04/07 10:29:55;;;;;;;3.60;0.93;;;25.10;46.30;;;;;;5071604;28;20023;-75
2024/04/07 10:32:34;;;;;;;1.92;0.90;;;25.20;47.10;;;;;;5071439;28;20261;-75
2024/04/07 10:35:12;;;;;;;2.22;0.90;;;25.20;48.50;;;;;;5074158;28;20032;-75
2024/04/07 10:37:41;;;;;;;2.63;0.98;;;25.20;47.60;;;;;;5069326;28;20021;-75
2024/04/07 10:40:13;;;;;;;2.45;0.80;;;25.20;48.20;;;;;;5074211;28;20032;-75
2024/04/07 10:42:39;;;;;;;1.13;0.70;;;25.30;48.60;;;;;;5074136;28;20025;-75
2024/04/07 10:45:05;;;;;;;1.65;1.10;;;25.40;45.80;;;;;;5073500;28;20502;-75
2024/04/07 10:47:32;;;;;;;1.77;1.23;;;25.60;46.60;;;;;;5075515;28;20495;-75
2024/04/07 10:49:57;;;;;;;0.85;0.85;;;25.60;46.00;;;;;;5074269;28;20024;-75
2024/04/07 10:52:26;;;;;;;1.08;1.08;;;25.60;45.40;;;;;;5075499;28;20024;-75
2024/04/07 10:54:56;;;;;;;0.95;0.80;;;25.60;46.80;;;;;;5075186;28;20077;-75
2024/04/07 10:57:22;;;;;;;1.00;0.85;;;25.80;46.00;;;;;;5075682;28;20036;-75
2024/04/07 10:59:47;;;;;;;0.82;0.60;;;25.90;45.70;;;;;;5075084;28;20034;-75
2024/04/07 11:02:14;;;;;;;3.40;1.02;;;26.00;46.60;;;;;;5073645;28;20021;-75
2024/04/07 11:04:41;;;;;;;1.23;1.13;;;25.90;43.50;;;;;;5073507;28;20390;-75
2024/04/07 11:07:08;;;;;;;1.77;0.98;;;26.10;44.90;;;;;;5072965;28;20028;-75
2024/04/07 11:09:34;;;;;;;1.05;0.75;;;26.00;45.30;;;;;;5074758;28;20027;-75
2024/04/07 11:12:00;;;;;;;2.50;1.15;;;26.00;45.10;;;;;;5071511;28;20025;-75
2024/04/07 11:14:27;;;;;;;0.85;0.82;;;26.10;46.60;;;;;;5074692;28;20032;-75
2024/04/07 11:17:02;;;;;;;2.15;0.90;;;26.10;45.40;;;;;;5074881;28;20074;-74
2024/04/07 11:19:28;;;;;;;1.98;1.23;;;26.10;46.30;;;;;;5073727;28;20461;-75
2024/04/07 11:21:55;;;;;;;1.70;1.08;;;26.10;45.40;;;;;;5074646;28;20116;-75
2024/04/07 11:24:21;;;;;;;1.60;1.05;;;26.30;45.90;;;;;;5074313;28;20020;-74
2024/04/07 11:26:48;;;;;;;1.63;0.75;;;26.20;44.50;;;;;;5073763;28;20020;-74
2024/04/07 11:29:16;;;;;;;0.93;0.93;;;26.30;44.20;;;;;;5073164;28;20032;-76
2024/04/07 11:31:42;;;;;;;2.03;0.98;;;26.30;43.10;;;;;;5074648;28;20074;-75
2024/04/07 11:34:08;;;;;;;1.73;0.88;;;26.40;44.70;;;;;;5074189;28;20024;-75
2024/04/07 11:36:33;;;;;;;1.80;1.10;;;26.60;45.50;;;;;;5073488;28;20541;-74
2024/04/07 11:38:59;;;;;;;1.55;0.95;;;26.70;45.10;;;;;;5073096;28;20020;-74
2024/04/07 11:41:24;;;;;;;1.73;0.93;;;26.60;45.20;;;;;;5074498;28;20033;-75
2024/04/07 11:43:52;;;;;;;7.60;0.95;;;26.70;44.60;;;;;;5073851;28;20013;-75
2024/04/07 11:46:17;;;;;;;2.45;1.50;;;26.60;45.20;;;;;;5074892;28;20024;-75
2024/04/07 11:48:43;;;;;;;1.08;0.90;;;26.70;45.70;;;;;;5074857;28;20025;-75
2024/04/07 11:51:09;;;;;;;5.05;1.20;;;26.80;44.70;;;;;;5074139;28;20024;-75
2024/04/07 11:53:35;;;;;;;0.95;0.90;;;26.60;43.70;;;;;;5072338;28;20600;-74
2024/04/07 11:56:03;;;;;;;2.40;1.13;;;26.70;44.90;;;;;;5074304;28;20020;-74
2024/04/07 11:58:29;;;;;;;1.33;0.98;;;26.70;44.70;;;;;;5069072;28;20021;-75
2024/04/07 12:00:54;;;;;;;3.10;1.13;;;26.70;44.80;;;;;;5072362;28;20510;-74
2024/04/07 12:03:20;;;;;;;4.43;1.10;;;26.70;45.90;;;;;;5073893;28;20054;-74
2024/04/07 12:05:46;;;;;;;1.42;1.00;;;26.80;45.20;;;;;;5071677;28;20032;-74
2024/04/07 12:08:11;;;;;;;1.60;1.35;;;26.80;46.50;;;;;;5073939;28;20033;-75
2024/04/07 12:10:37;;;;;;;4.68;1.33;;;26.90;45.30;;;;;;5073998;28;20078;-75
2024/04/07 12:13:03;;;;;;;2.38;1.10;;;26.90;46.10;;;;;;5073358;28;20020;-76
2024/04/07 12:15:30;;;;;;;4.90;1.58;;;27.00;45.50;;;;;;5074093;28;20029;-75
2024/04/07 12:17:55;;;;;;;1.95;1.10;;;27.00;45.70;;;;;;5074327;28;20028;-75
2024/04/07 12:20:21;;;;;;;1.65;1.30;;;27.00;45.40;;;;;;5070303;28;20028;-75
2024/04/07 12:22:47;;;;;;;1.30;1.20;;;27.00;45.30;;;;;;5084619;28;20051;-73
2024/04/07 12:25:12;;;;;;;1.35;1.02;;;27.00;44.80;;;;;;5094735;28;20036;-73
2024/04/07 12:27:38;;;;;;;1.25;1.15;;;27.00;45.10;;;;;;5096117;28;20016;-74
2024/04/07 12:30:04;;;;;;;1.60;1.05;;;27.00;43.50;;;;;;5095815;28;20072;-72
2024/04/07 12:32:30;;;;;;;4.13;1.08;;;27.20;44.40;;;;;;5081680;28;20033;-75
2024/04/07 12:34:56;;;;;;;1.02;0.95;;;27.10;44.00;;;;;;5074698;28;20052;-75
2024/04/07 12:37:21;;;;;;;3.13;1.15;;;27.20;44.40;;;;;;5076631;28;20012;-75
2024/04/07 12:39:48;;;;;;;6.32;1.55;;;27.10;42.90;;;;;;5072970;28;20032;-74
2024/04/07 12:42:14;;;;;;;2.45;1.33;;;27.10;44.10;;;;;;5072772;28;20028;-74
2024/04/07 12:44:40;;;;;;;2.58;1.52;;;27.30;45.40;;;;;;5071109;28;20027;-74
2024/04/07 12:47:06;;;;;;;1.77;1.08;;;27.50;45.90;;;;;;5065788;28;20017;-74